Time;durP1;ratioP1;P1;durP2;ratioP2;P2;SDS_P1;SDS_P2;PMS_P1;PMS_P2;Temp;Humidity;BMP_temperature;BMP_pressure;BME280_temperature;BME280_humidity;BME280_pressure;Samples;Min_cycle;Max_cycle;Signal;HPM_P1;HPM_P2
2022/12/05 00:00:21;;;;;;;34.17;13.25;;;4.10;99.90;;;;;;5052605;28;20130;-78
2022/12/05 00:02:46;;;;;;;34.33;12.57;;;3.20;99.90;;;;;;5054531;28;20104;-77
2022/12/05 00:05:12;;;;;;;35.58;12.57;;;3.30;99.90;;;;;;5053966;28;20498;-77
2022/12/05 00:07:38;;;;;;;32.25;12.65;;;3.30;99.90;;;;;;5053211;28;20044;-78
2022/12/05 00:10:05;;;;;;;33.78;11.38;;;3.30;99.90;;;;;;5053105;28;20031;-77
2022/12/05 00:12:34;;;;;;;30.20;11.85;;;;;;;;;;5053988;28;20036;-77
2022/12/05 00:15:01;;;;;;;33.78;11.80;;;3.40;99.90;;;;;;5052536;28;20480;-77
2022/12/05 00:17:27;;;;;;;31.83;11.70;;;3.30;99.90;;;;;;5056289;28;20124;-77
2022/12/05 00:19:53;;;;;;;34.33;12.07;;;3.40;99.90;;;;;;5056717;28;20495;-78
2022/12/05 00:22:18;;;;;;;31.13;12.82;;;3.90;99.90;;;;;;5057753;28;20025;-77
2022/12/05 00:24:44;;;;;;;30.17;11.95;;;4.60;99.90;;;;;;5057029;28;20024;-77
2022/12/05 00:27:09;;;;;;;33.72;12.38;;;3.40;99.90;;;;;;5057254;28;20511;-77
2022/12/05 00:29:35;;;;;;;29.77;11.63;;;3.40;99.90;;;;;;5056227;28;20029;-77
2022/12/05 00:32:01;;;;;;;30.08;11.65;;;3.40;99.90;;;;;;5055457;28;20028;-77
2022/12/05 00:34:26;;;;;;;30.80;11.48;;;3.90;99.90;;;;;;5055540;28;20115;-77
2022/12/05 00:36:52;;;;;;;33.13;12.23;;;3.50;99.90;;;;;;5055618;28;20032;-78
2022/12/05 00:39:18;;;;;;;34.00;12.52;;;3.50;99.90;;;;;;5055234;28;20017;-77
2022/12/05 00:41:43;;;;;;;32.05;11.65;;;3.50;99.90;;;;;;5055737;28;20109;-78
2022/12/05 00:44:10;;;;;;;28.15;10.15;;;3.50;99.90;;;;;;5055924;28;20013;-78
2022/12/05 00:46:36;;;;;;;29.38;10.40;;;3.50;99.90;;;;;;5056704;28;20021;-77
2022/12/05 00:49:04;;;;;;;30.15;11.57;;;3.90;99.90;;;;;;5055402;28;20048;-77
2022/12/05 00:51:36;;;;;;;31.10;12.43;;;3.50;99.90;;;;;;5055519;28;20025;-78
2022/12/05 00:54:08;;;;;;;33.45;11.77;;;3.30;99.90;;;;;;5055454;28;20470;-77
2022/12/05 00:56:34;;;;;;;31.75;10.93;;;3.50;99.90;;;;;;5055774;28;20028;-77
2022/12/05 00:59:01;;;;;;;30.70;11.43;;;3.50;99.90;;;;;;5057049;28;20025;-77
2022/12/05 01:01:33;;;;;;;33.28;11.63;;;3.60;99.90;;;;;;5055774;28;20105;-77
2022/12/05 01:04:01;;;;;;;32.95;12.98;;;3.60;99.90;;;;;;5055005;28;20032;-77
2022/12/05 01:06:27;;;;;;;32.15;10.65;;;3.60;99.90;;;;;;5055354;28;20016;-77
2022/12/05 01:08:54;;;;;;;30.15;10.35;;;3.60;99.90;;;;;;5056648;28;20151;-77
2022/12/05 01:11:22;;;;;;;31.33;11.95;;;3.60;99.90;;;;;;5054710;28;20024;-77
2022/12/05 01:13:48;;;;;;;31.48;11.68;;;3.50;99.90;;;;;;5056616;28;20021;-77
2022/12/05 01:16:24;;;;;;;31.85;10.75;;;3.60;99.90;;;;;;5054676;28;20032;-77
2022/12/05 01:18:50;;;;;;;29.52;11.23;;;3.60;99.90;;;;;;5054588;28;20048;-77
2022/12/05 01:21:16;;;;;;;33.30;11.40;;;3.60;99.90;;;;;;5055327;28;20376;-77
2022/12/05 01:23:42;;;;;;;31.80;11.00;;;3.60;99.90;;;;;;5055403;28;20021;-78
2022/12/05 01:26:11;;;;;;;33.13;11.85;;;3.60;99.90;;;;;;5056712;28;20029;-77
2022/12/05 01:28:38;;;;;;;34.90;11.02;;;3.50;99.90;;;;;;5055737;28;20025;-77
2022/12/05 01:31:17;;;;;;;37.47;12.10;;;3.60;99.90;;;;;;5056333;28;20044;-77
2022/12/05 01:33:43;;;;;;;34.90;12.75;;;3.60;99.90;;;;;;5055197;28;20029;-78
2022/12/05 01:36:11;;;;;;;30.55;11.55;;;3.60;99.90;;;;;;5056133;28;20187;-77
2022/12/05 01:38:39;;;;;;;28.50;11.77;;;3.60;99.90;;;;;;5054722;28;20032;-77
2022/12/05 01:41:06;;;;;;;32.70;12.27;;;3.60;99.90;;;;;;5054756;28;20048;-78
2022/12/05 01:43:32;;;;;;;31.63;12.38;;;3.60;99.90;;;;;;5054811;28;20083;-77
2022/12/05 01:45:58;;;;;;;30.05;11.15;;;3.60;99.90;;;;;;5054773;28;20021;-78
2022/12/05 01:48:33;;;;;;;33.20;12.40;;;3.60;99.90;;;;;;5054296;28;20025;-78
2022/12/05 01:51:01;;;;;;;31.33;11.77;;;3.60;99.90;;;;;;5053601;28;20060;-77
2022/12/05 01:53:28;;;;;;;35.35;13.30;;;3.60;99.90;;;;;;5054957;28;20021;-77
2022/12/05 01:55:55;;;;;;;31.08;11.30;;;3.60;99.90;;;;;;5053652;28;20488;-78
2022/12/05 01:58:26;;;;;;;32.95;11.60;;;3.60;99.90;;;;;;5053823;28;20052;-78
2022/12/05 02:00:51;;;;;;;31.88;11.55;;;3.60;99.90;;;;;;5053312;28;20028;-78
2022/12/05 02:03:19;;;;;;;37.60;11.23;;;3.60;99.90;;;;;;5054660;28;20033;-78
2022/12/05 02:05:48;;;;;;;30.58;11.60;;;3.60;99.90;;;;;;5052910;28;20451;-78
2022/12/05 02:08:17;;;;;;;31.52;11.82;;;3.60;99.90;;;;;;5051446;28;20115;-77
2022/12/05 02:10:49;;;;;;;29.00;11.88;;;3.60;99.90;;;;;;5054331;28;20036;-78
2022/12/05 02:13:44;;;;;;;34.58;12.63;;;3.60;99.90;;;;;;5055126;28;20032;-78
2022/12/05 02:16:22;;;;;;;33.15;12.48;;;3.70;99.90;;;;;;5053012;28;20037;-78
2022/12/05 02:19:06;;;;;;;35.20;12.02;;;3.70;99.90;;;;;;5054155;28;20032;-77
2022/12/05 02:21:59;;;;;;;30.88;10.50;;;3.70;99.90;;;;;;5054451;28;20029;-77
2022/12/05 02:24:43;;;;;;;29.42;11.25;;;3.70;99.90;;;;;;5052382;28;20025;-77
2022/12/05 02:27:17;;;;;;;35.60;11.60;;;3.70;99.90;;;;;;5052869;28;20037;-78
2022/12/05 02:30:00;;;;;;;31.13;11.30;;;3.70;99.90;;;;;;5054387;28;20025;-78
2022/12/05 02:32:32;;;;;;;32.58;10.57;;;3.70;99.90;;;;;;5052945;28;20075;-78
2022/12/05 02:35:00;;;;;;;32.15;11.63;;;3.70;99.90;;;;;;5054565;28;20031;-78
2022/12/05 02:37:43;;;;;;;24.20;9.10;;;3.70;99.90;;;;;;5053057;28;20032;-78
2022/12/05 02:40:12;;;;;;;28.35;11.27;;;3.80;99.90;;;;;;5053607;28;20054;-77
2022/12/05 02:42:48;;;;;;;31.85;11.85;;;3.70;99.90;;;;;;5052645;28;20056;-78
2022/12/05 02:45:17;;;;;;;34.55;12.57;;;3.70;99.90;;;;;;5052798;28;20116;-78
2022/12/05 02:47:49;;;;;;;41.28;12.43;;;3.70;99.90;;;;;;5054032;28;20368;-77
2022/12/05 02:50:20;;;;;;;33.22;11.93;;;4.80;99.90;;;;;;5052413;28;20032;-78
2022/12/05 02:52:49;;;;;;;33.00;11.85;;;3.70;99.90;;;;;;5054122;28;20031;-78
2022/12/05 02:55:15;;;;;;;;;;;3.70;99.90;;;;;;5052874;28;20020;-78
2022/12/05 02:57:44;;;;;;;30.45;10.98;;;3.70;99.90;;;;;;5035521;28;19915;-78
2022/12/05 03:00:10;;;;;;;;;;;3.80;99.90;;;;;;5052922;28;20017;-78
2022/12/05 03:02:40;;;;;;;31.73;11.00;;;3.80;99.90;;;;;;5052248;28;19912;-78
2022/12/05 03:05:26;;;;;;;31.02;10.15;;;3.80;99.90;;;;;;5052236;28;20021;-78
2022/12/05 03:07:55;;;;;;;37.08;11.82;;;3.80;99.90;;;;;;5054129;28;20166;-78
2022/12/05 03:10:26;;;;;;;33.08;12.45;;;3.80;99.90;;;;;;5052195;28;20070;-78
2022/12/05 03:13:01;;;;;;;29.42;10.13;;;3.80;99.90;;;;;;5053113;28;20078;-79
2022/12/05 03:15:34;;;;;;;29.25;10.30;;;3.80;99.90;;;;;;5053274;28;20480;-79
2022/12/05 03:18:07;;;;;;;27.70;10.35;;;3.80;99.90;;;;;;5054220;28;20025;-79
2022/12/05 03:20:40;;;;;;;32.72;11.57;;;3.90;99.90;;;;;;5053025;28;20025;-80
2022/12/05 03:23:12;;;;;;;32.17;10.75;;;3.80;99.90;;;;;;5053870;28;20025;-80
2022/12/05 03:25:49;;;;;;;27.10;9.73;;;3.90;99.90;;;;;;5052834;28;20400;-78
2022/12/05 03:28:28;;;;;;;30.73;11.40;;;4.00;99.90;;;;;;5032961;28;20052;-79
2022/12/05 03:30:58;;;;;;;31.20;9.15;;;3.90;99.90;;;;;;5033171;28;20017;-79
2022/12/05 03:33:30;;;;;;;30.73;10.90;;;5.50;99.90;;;;;;5033047;28;20072;-79
2022/12/05 03:36:07;;;;;;;28.90;10.65;;;3.90;99.90;;;;;;5036877;28;20026;-80
2022/12/05 03:38:55;;;;;;;29.02;10.77;;;3.90;99.90;;;;;;5039439;28;20033;-79
2022/12/05 03:41:52;;;;;;;34.58;11.32;;;3.90;99.90;;;;;;5026930;28;20488;-79
2022/12/05 03:44:25;;;;;;;27.40;9.32;;;6.60;99.90;;;;;;5051931;28;20021;-79
2022/12/05 03:47:05;;;;;;;28.80;10.15;;;3.90;99.90;;;;;;5052289;28;20528;-80
2022/12/05 03:49:42;;;;;;;31.92;10.48;;;3.90;99.90;;;;;;5053656;28;20546;-79
2022/12/05 03:52:24;;;;;;;24.83;9.65;;;3.90;99.90;;;;;;5055441;28;20033;-79
2022/12/05 03:54:54;;;;;;;24.83;9.73;;;3.90;99.90;;;;;;5057246;28;20079;-79
2022/12/05 03:57:34;;;;;;;25.30;9.32;;;3.90;99.90;;;;;;5055921;28;20021;-79
2022/12/05 04:00:07;;;;;;;30.20;10.52;;;3.90;99.90;;;;;;5055723;28;20037;-79
2022/12/05 04:02:44;;;;;;;26.95;10.13;;;3.90;99.90;;;;;;5056805;28;20124;-79
2022/12/05 04:05:22;;;;;;;26.02;8.98;;;3.90;99.90;;;;;;5055977;28;20476;-79
2022/12/05 04:07:55;;;;;;;27.63;9.70;;;4.00;99.90;;;;;;5057078;28;20021;-79
2022/12/05 04:10:26;;;;;;;25.08;9.02;;;3.90;99.90;;;;;;5055719;28;20025;-79
2022/12/05 04:12:54;;;;;;;24.08;8.88;;;4.00;99.90;;;;;;5056759;28;20108;-78
2022/12/05 04:15:26;;;;;;;26.43;10.63;;;4.00;99.90;;;;;;5055295;28;20120;-78
2022/12/05 04:17:56;;;;;;;21.35;9.13;;;4.00;99.90;;;;;;5056655;28;20016;-79
2022/12/05 04:23:25;;;;;;;26.55;10.00;;;4.00;99.90;;;;;;5076940;28;20109;-77
2022/12/05 04:25:54;;;;;;;23.98;9.65;;;4.00;99.90;;;;;;5058200;28;20102;-77
2022/12/05 04:28:32;;;;;;;28.05;10.10;;;4.00;99.90;;;;;;5076309;28;20020;-77
2022/12/05 04:31:28;;;;;;;21.43;8.37;;;4.00;99.90;;;;;;5058372;28;20024;-77
2022/12/05 04:34:10;;;;;;;21.45;9.02;;;4.00;99.90;;;;;;5058198;28;20032;-77
2022/12/05 04:36:39;;;;;;;22.20;8.82;;;4.00;99.90;;;;;;5058005;28;20432;-77
2022/12/05 04:39:29;;;;;;;24.48;8.40;;;4.10;99.90;;;;;;5075932;28;20027;-77
2022/12/05 04:41:59;;;;;;;26.23;9.52;;;4.00;99.90;;;;;;5076030;28;20035;-76
2022/12/05 04:44:31;;;;;;;20.52;7.80;;;4.10;99.90;;;;;;5076067;28;20101;-76
2022/12/05 04:47:01;;;;;;;23.75;9.07;;;4.10;99.90;;;;;;5076862;28;20029;-77
2022/12/05 04:49:29;;;;;;;27.92;9.57;;;4.10;99.90;;;;;;5076056;28;20032;-77
2022/12/05 04:52:01;;;;;;;25.45;9.82;;;4.10;99.90;;;;;;5075620;28;20087;-76
2022/12/05 04:54:44;;;;;;;24.10;9.00;;;4.10;99.90;;;;;;5075987;28;20028;-76
2022/12/05 04:57:18;;;;;;;25.02;9.20;;;4.10;99.90;;;;;;5076114;28;20154;-76
2022/12/05 04:59:44;;;;;;;22.25;8.60;;;4.10;99.90;;;;;;5058143;28;20035;-78
2022/12/05 05:02:13;;;;;;;24.73;9.50;;;4.10;99.90;;;;;;5075813;28;20469;-78
2022/12/05 05:04:44;;;;;;;24.33;9.57;;;4.10;99.90;;;;;;5076502;28;20020;-78
2022/12/05 05:07:11;;;;;;;25.50;8.85;;;4.10;99.90;;;;;;5059045;28;20028;-78
2022/12/05 05:09:38;;;;;;;27.10;9.77;;;4.20;99.90;;;;;;5076330;28;20013;-78
2022/12/05 05:12:04;;;;;;;21.95;9.20;;;4.10;99.90;;;;;;5058253;28;20025;-78
2022/12/05 05:14:30;;;;;;;23.52;9.02;;;4.10;99.90;;;;;;5076334;28;20024;-78
2022/12/05 05:16:56;;;;;;;26.33;9.50;;;4.10;99.90;;;;;;5057988;28;20026;-79
2022/12/05 05:19:22;;;;;;;29.52;10.35;;;4.10;99.90;;;;;;5058114;28;20115;-79
2022/12/05 05:21:47;;;;;;;24.55;10.30;;;4.10;99.90;;;;;;5057829;28;20455;-79
2022/12/05 05:24:14;;;;;;;30.52;10.73;;;4.20;99.90;;;;;;5057662;28;20024;-78
2022/12/05 05:26:42;;;;;;;31.98;10.93;;;4.10;99.90;;;;;;5075612;28;20436;-77
2022/12/05 05:29:08;;;;;;;24.87;9.20;;;4.20;99.90;;;;;;5057639;28;20025;-79
2022/12/05 05:31:36;;;;;;;27.27;10.23;;;4.10;99.90;;;;;;5074884;28;20103;-78
2022/12/05 05:34:02;;;;;;;26.00;9.10;;;4.20;99.90;;;;;;5057231;28;20032;-78
2022/12/05 05:36:28;;;;;;;27.23;10.60;;;4.20;99.90;;;;;;5075519;28;20035;-79
2022/12/05 05:38:56;;;;;;;31.02;11.27;;;4.00;99.90;;;;;;5057937;28;20017;-78
2022/12/05 05:41:25;;;;;;;28.50;10.97;;;4.20;99.90;;;;;;5057585;28;20360;-78
2022/12/05 05:43:52;;;;;;;28.48;11.07;;;4.30;99.90;;;;;;5058425;28;20037;-78
2022/12/05 05:46:21;;;;;;;27.60;10.63;;;4.30;99.90;;;;;;5058325;28;20494;-79
2022/12/05 05:48:46;;;;;;;29.70;11.80;;;4.30;99.90;;;;;;5058263;28;20021;-78
2022/12/05 05:51:14;;;;;;;26.30;10.80;;;4.30;99.90;;;;;;5076842;28;20024;-78
2022/12/05 05:53:40;;;;;;;27.35;9.98;;;4.30;99.90;;;;;;5075752;28;20059;-79
2022/12/05 05:56:09;;;;;;;25.65;10.55;;;4.40;99.90;;;;;;5075470;28;20024;-79
2022/12/05 05:58:35;;;;;;;26.30;10.93;;;4.40;99.90;;;;;;5057525;28;20052;-78
2022/12/05 06:01:15;;;;;;;34.38;10.68;;;4.40;99.90;;;;;;5075412;28;20108;-78
2022/12/05 06:03:41;;;;;;;29.17;11.57;;;4.40;99.90;;;;;;5057569;28;20021;-78
2022/12/05 06:06:09;;;;;;;32.35;10.88;;;4.40;99.90;;;;;;5075699;28;20395;-79
2022/12/05 06:08:38;;;;;;;25.80;10.03;;;4.40;99.90;;;;;;5057348;28;20024;-78
2022/12/05 06:11:05;;;;;;;28.35;10.82;;;5.00;99.90;;;;;;5057499;28;20300;-78
2022/12/05 06:13:31;;;;;;;27.85;10.15;;;4.50;99.90;;;;;;5056908;28;20104;-78
2022/12/05 06:15:57;;;;;;;31.58;11.00;;;4.50;99.90;;;;;;5074591;28;20573;-79
2022/12/05 06:18:22;;;;;;;27.20;10.73;;;4.50;99.90;;;;;;5057251;28;20048;-78
2022/12/05 06:20:56;;;;;;;29.08;10.35;;;4.50;99.90;;;;;;5058749;28;20023;-79
2022/12/05 06:23:22;;;;;;;27.25;10.65;;;4.50;99.90;;;;;;5059336;28;20020;-79
2022/12/05 06:25:49;;;;;;;28.17;10.32;;;4.50;99.90;;;;;;5060338;28;20546;-80
2022/12/05 06:28:16;;;;;;;26.55;9.82;;;4.50;99.90;;;;;;5059649;28;20031;-79
2022/12/05 06:30:41;;;;;;;29.15;10.75;;;4.40;99.90;;;;;;5058449;28;20024;-79
2022/12/05 06:33:07;;;;;;;29.98;9.93;;;4.50;99.90;;;;;;5075335;28;20383;-79
2022/12/05 06:35:32;;;;;;;27.35;9.55;;;4.50;99.90;;;;;;5057225;28;20115;-79
2022/12/05 06:37:58;;;;;;;28.65;10.52;;;4.60;99.90;;;;;;5058106;28;20032;-79
2022/12/05 06:40:24;;;;;;;30.02;9.57;;;4.50;99.90;;;;;;5057329;28;20020;-79
2022/12/05 06:42:49;;;;;;;31.98;10.93;;;4.60;99.90;;;;;;5057977;28;20020;-79
2022/12/05 06:45:15;;;;;;;28.95;11.00;;;4.60;99.90;;;;;;5056594;28;20115;-80
2022/12/05 06:47:40;;;;;;;30.55;10.50;;;4.60;99.90;;;;;;5057465;28;20028;-79
2022/12/05 06:50:07;;;;;;;27.90;10.60;;;4.60;99.90;;;;;;5075664;28;20029;-79
2022/12/05 06:52:33;;;;;;;27.08;10.68;;;;;;;;;;5057722;28;20031;-79
2022/12/05 06:54:58;;;;;;;29.77;10.27;;;4.70;99.90;;;;;;5056207;28;20024;-79
2022/12/05 06:57:24;;;;;;;24.55;10.05;;;4.70;99.90;;;;;;5075479;28;20016;-79
2022/12/05 06:59:50;;;;;;;25.05;9.27;;;4.60;99.90;;;;;;5056966;28;20017;-79
2022/12/05 07:02:15;;;;;;;26.27;9.95;;;4.70;99.90;;;;;;5074386;28;20036;-80
2022/12/05 07:04:41;;;;;;;29.23;9.63;;;;;;;;;;5056252;28;20028;-80
2022/12/05 07:07:07;;;;;;;29.70;10.40;;;4.70;99.90;;;;;;5056870;28;20064;-80
2022/12/05 07:09:45;;;;;;;27.40;10.07;;;4.70;99.90;;;;;;5056798;28;20031;-78
2022/12/05 07:12:16;;;;;;;27.08;9.82;;;4.70;99.90;;;;;;5074117;28;20025;-77
2022/12/05 07:14:42;;;;;;;24.02;9.63;;;4.70;99.90;;;;;;5055648;28;20107;-78
2022/12/05 07:17:08;;;;;;;26.33;10.20;;;4.80;99.90;;;;;;5055261;28;20016;-77
2022/12/05 07:19:34;;;;;;;25.05;9.45;;;4.80;99.90;;;;;;5055648;28;20024;-77
2022/12/05 07:22:00;;;;;;;22.58;8.57;;;4.50;99.90;;;;;;5073091;28;20029;-78
2022/12/05 07:24:26;;;;;;;26.08;8.90;;;4.80;99.90;;;;;;5055682;28;20124;-78
2022/12/05 07:26:51;;;;;;;20.33;8.07;;;4.90;99.90;;;;;;5077308;28;20065;-78
2022/12/05 07:29:17;;;;;;;19.20;8.45;;;5.50;99.90;;;;;;5060103;28;20025;-78
2022/12/05 07:31:42;;;;;;;23.40;8.93;;;4.90;99.90;;;;;;5077991;28;20051;-78
2022/12/05 07:34:08;;;;;;;25.55;8.60;;;4.90;99.90;;;;;;5059586;28;20021;-78
2022/12/05 07:36:34;;;;;;;23.88;9.13;;;4.90;99.90;;;;;;5077345;28;20056;-78
2022/12/05 07:38:59;;;;;;;21.80;8.93;;;4.90;99.90;;;;;;5077607;28;20380;-78
2022/12/05 07:41:28;;;;;;;20.65;8.20;;;4.90;99.90;;;;;;5077396;28;20048;-77
2022/12/05 07:43:55;;;;;;;24.58;8.32;;;4.90;99.90;;;;;;5077356;28;20077;-77
2022/12/05 07:46:22;;;;;;;21.88;7.53;;;4.90;99.90;;;;;;5077110;28;20063;-76
2022/12/05 07:48:48;;;;;;;23.08;8.00;;;4.90;99.90;;;;;;5059250;28;20484;-80
2022/12/05 07:51:13;;;;;;;18.17;7.15;;;5.00;99.90;;;;;;5059352;28;20017;-78
2022/12/05 07:53:43;;;;;;;15.70;7.07;;;5.00;99.90;;;;;;5076984;28;20035;-78
2022/12/05 07:56:15;;;;;;;17.88;7.80;;;5.00;99.90;;;;;;5075798;28;20021;-78
2022/12/05 07:58:47;;;;;;;20.08;7.80;;;5.00;99.90;;;;;;5076829;28;20559;-78
2022/12/05 08:01:15;;;;;;;17.80;6.53;;;5.00;99.90;;;;;;5076728;28;20020;-78
2022/12/05 08:03:41;;;;;;;18.60;7.18;;;5.00;99.90;;;;;;5058745;28;20036;-78
2022/12/05 08:06:09;;;;;;;18.73;7.40;;;5.00;99.90;;;;;;5058591;28;20029;-78
2022/12/05 08:08:35;;;;;;;16.30;7.10;;;5.00;99.90;;;;;;5076709;28;20026;-78
2022/12/05 08:11:16;;;;;;;14.45;7.05;;;5.00;99.90;;;;;;5076425;28;20266;-78
2022/12/05 08:13:42;;;;;;;15.35;6.53;;;5.00;99.90;;;;;;5058425;28;20094;-78
2022/12/05 08:16:13;;;;;;;14.60;6.38;;;5.90;99.90;;;;;;5076000;28;20442;-78
2022/12/05 08:18:39;;;;;;;15.68;6.45;;;5.90;99.90;;;;;;5058284;28;20020;-78
2022/12/05 08:21:07;;;;;;;14.05;6.18;;;5.00;99.90;;;;;;5058244;28;20115;-78
2022/12/05 08:23:33;;;;;;;10.10;5.67;;;5.20;99.90;;;;;;5058982;28;20031;-78
2022/12/05 08:26:07;;;;;;;18.90;7.55;;;5.10;99.90;;;;;;5058011;28;20297;-78
2022/12/05 08:28:33;;;;;;;17.08;7.30;;;5.10;99.90;;;;;;5076265;28;20024;-78
2022/12/05 08:31:08;;;;;;;15.02;6.60;;;5.10;99.90;;;;;;5076105;28;20025;-78
2022/12/05 08:33:34;;;;;;;15.05;6.80;;;5.80;99.90;;;;;;5057576;28;20024;-78
2022/12/05 08:36:04;;;;;;;13.70;5.95;;;5.10;99.90;;;;;;5057287;28;20012;-78
2022/12/05 08:38:30;;;;;;;12.27;6.07;;;5.10;99.90;;;;;;5075896;28;20033;-77
2022/12/05 08:40:58;;;;;;;15.85;5.82;;;5.10;99.90;;;;;;5057733;28;20044;-77
2022/12/05 08:43:24;;;;;;;14.25;5.80;;;5.10;99.90;;;;;;5075821;28;20498;-78
2022/12/05 08:45:51;;;;;;;15.80;6.43;;;5.20;99.90;;;;;;5057666;28;20025;-78
2022/12/05 08:48:18;;;;;;;14.80;6.25;;;5.20;99.90;;;;;;5058058;28;20395;-78
2022/12/05 08:50:44;;;;;;;14.10;6.32;;;5.20;99.90;;;;;;5057513;28;20029;-76
2022/12/05 08:53:09;;;;;;;14.38;6.00;;;6.40;99.90;;;;;;5075627;28;20035;-78
2022/12/05 08:55:36;;;;;;;14.70;5.72;;;5.20;99.90;;;;;;5075233;28;20391;-78
2022/12/05 08:58:02;;;;;;;12.38;6.15;;;5.20;99.90;;;;;;5057305;28;20452;-79
2022/12/05 09:00:28;;;;;;;11.50;5.03;;;5.30;99.90;;;;;;5075660;28;20028;-78
2022/12/05 09:02:53;;;;;;;11.82;5.22;;;5.30;99.90;;;;;;5075408;28;20029;-78
2022/12/05 09:05:19;;;;;;;11.32;5.32;;;5.30;99.90;;;;;;5075277;28;20024;-78
2022/12/05 09:07:44;;;;;;;12.35;5.40;;;5.30;99.90;;;;;;5057732;28;20024;-78
2022/12/05 09:10:10;;;;;;;12.95;5.57;;;5.30;99.90;;;;;;5075447;28;20032;-77
2022/12/05 09:12:37;;;;;;;15.27;5.20;;;5.40;99.90;;;;;;5075070;28;20016;-79
2022/12/05 09:15:06;;;;;;;10.80;5.13;;;5.40;99.90;;;;;;5075048;28;20024;-77
2022/12/05 09:17:32;;;;;;;10.57;4.10;;;5.40;99.90;;;;;;5049425;28;20036;-77
2022/12/05 09:19:58;;;;;;;7.50;3.95;;;5.40;99.90;;;;;;5074219;28;20027;-78
2022/12/05 09:22:23;;;;;;;11.02;4.75;;;5.40;99.90;;;;;;5075084;28;20032;-79
2022/12/05 09:24:49;;;;;;;7.43;4.15;;;5.50;99.90;;;;;;5075144;28;20017;-78
2022/12/05 09:27:15;;;;;;;9.27;4.03;;;5.50;99.90;;;;;;5075769;28;20025;-78
2022/12/05 09:29:41;;;;;;;8.38;4.22;;;5.50;99.90;;;;;;5075154;28;20028;-79
2022/12/05 09:32:07;;;;;;;6.63;3.10;;;5.50;99.90;;;;;;5056420;28;20023;-78
2022/12/05 09:34:33;;;;;;;9.77;3.83;;;5.50;99.90;;;;;;5074184;28;20032;-78
2022/12/05 09:37:00;;;;;;;6.90;3.50;;;5.50;99.90;;;;;;5074212;28;20051;-78
2022/12/05 09:39:26;;;;;;;8.23;3.40;;;5.60;99.90;;;;;;5056815;28;20039;-79
2022/12/05 09:42:12;;;;;;;7.80;3.53;;;5.60;99.90;;;;;;5074897;28;20029;-78
2022/12/05 09:44:52;;;;;;;7.63;3.50;;;5.60;99.90;;;;;;5049690;28;20035;-78
2022/12/05 09:47:30;;;;;;;8.35;3.70;;;5.60;99.90;;;;;;5057472;28;20027;-78
2022/12/05 09:50:19;;;;;;;6.95;3.60;;;5.60;99.90;;;;;;5056176;28;20028;-79
2022/12/05 09:53:10;;;;;;;8.00;3.30;;;5.60;99.90;;;;;;5056717;28;20480;-78
2022/12/05 09:55:38;;;;;;;6.90;3.45;;;5.60;99.90;;;;;;5050517;28;20119;-78
2022/12/05 09:58:12;;;;;;;7.57;3.63;;;5.60;99.90;;;;;;5056645;28;20029;-78
2022/12/05 10:00:38;;;;;;;6.63;3.55;;;5.60;99.90;;;;;;5074737;28;20020;-77
2022/12/05 10:03:26;;;;;;;6.90;3.45;;;5.60;99.90;;;;;;5074622;28;20395;-76
2022/12/05 10:06:07;;;;;;;5.95;3.25;;;5.60;99.90;;;;;;5074167;28;20025;-76
2022/12/05 10:09:10;;;;;;;6.55;3.92;;;5.70;99.90;;;;;;5074457;28;20021;-78
2022/12/05 10:11:51;;;;;;;6.82;2.58;;;5.60;99.90;;;;;;5071756;28;20703;-77
2022/12/05 10:14:27;;;;;;;6.78;2.65;;;5.70;99.90;;;;;;5071310;28;20115;-78
2022/12/05 10:17:02;;;;;;;4.95;2.45;;;5.70;99.90;;;;;;5070868;28;20527;-78
2022/12/05 10:19:40;;;;;;;6.90;2.75;;;5.70;99.90;;;;;;5070681;28;20422;-78
2022/12/05 10:22:43;;;;;;;4.15;1.95;;;5.90;99.90;;;;;;5070983;28;20082;-77
2022/12/05 10:25:13;;;;;;;4.63;1.80;;;5.70;99.90;;;;;;5071749;28;20036;-78
2022/12/05 10:27:48;;;;;;;4.03;1.80;;;5.70;99.90;;;;;;5071282;28;20017;-80
2022/12/05 10:30:28;;;;;;;5.53;1.50;;;5.60;99.90;;;;;;5071485;28;20024;-78
2022/12/05 10:33:03;;;;;;;3.63;1.85;;;5.70;99.90;;;;;;5075500;28;20055;-79
2022/12/05 10:35:37;;;;;;;3.42;1.30;;;5.70;99.90;;;;;;5075587;28;20035;-76
2022/12/05 10:38:14;;;;;;;3.72;1.65;;;5.70;99.90;;;;;;5068995;28;20036;-76
2022/12/05 10:40:48;;;;;;;3.28;1.52;;;5.70;99.90;;;;;;5072945;28;20067;-80
2022/12/05 10:43:22;;;;;;;3.05;1.65;;;5.70;99.90;;;;;;5073388;28;20055;-81
2022/12/05 10:45:48;;;;;;;4.10;1.73;;;5.60;99.90;;;;;;5069700;28;20025;-78
2022/12/05 10:48:16;;;;;;;2.83;1.20;;;5.60;99.90;;;;;;5069189;28;20017;-77
2022/12/05 10:50:44;;;;;;;4.78;1.10;;;5.60;99.90;;;;;;5068993;28;20033;-76
2022/12/05 10:53:16;;;;;;;1.92;0.93;;;5.70;99.90;;;;;;5072039;28;20016;-78
2022/12/05 10:55:50;;;;;;;3.03;1.25;;;5.70;99.90;;;;;;5077856;28;20032;-78
2022/12/05 10:58:27;;;;;;;1.73;0.80;;;5.70;99.90;;;;;;5077933;28;20088;-78
2022/12/05 11:00:56;;;;;;;2.90;1.10;;;5.70;99.90;;;;;;5071505;28;20040;-78
2022/12/05 11:03:26;;;;;;;;;;;5.70;99.90;;;;;;5069078;28;20620;-77
2022/12/05 11:05:55;;;;;;;3.10;0.85;;;5.80;99.90;;;;;;5076809;28;19987;-79
2022/12/05 11:08:28;;;;;;;4.10;1.27;;;5.80;99.90;;;;;;5070041;28;20047;-78
2022/12/05 11:11:08;;;;;;;2.35;0.80;;;5.80;99.90;;;;;;5070154;28;20033;-77
2022/12/05 11:13:34;;;;;;;3.13;1.20;;;5.80;99.90;;;;;;5081948;28;20017;-79
2022/12/05 11:16:01;;;;;;;2.55;0.80;;;5.80;99.90;;;;;;5084338;28;20041;-80
2022/12/05 11:18:30;;;;;;;5.50;1.02;;;5.80;99.90;;;;;;5082822;28;20036;-79
2022/12/05 11:21:18;;;;;;;2.75;0.57;;;5.80;99.90;;;;;;5077655;28;20017;-78
2022/12/05 11:23:44;;;;;;;1.80;0.60;;;5.80;99.90;;;;;;5055299;28;20074;-78
2022/12/05 11:26:37;;;;;;;1.70;0.70;;;5.90;99.90;;;;;;5055079;28;20052;-78
2022/12/05 11:29:03;;;;;;;3.25;1.13;;;5.90;99.90;;;;;;5054541;28;20033;-77
2022/12/05 11:31:31;;;;;;;2.15;0.75;;;5.90;99.90;;;;;;5056756;28;20480;-79
2022/12/05 11:34:02;;;;;;;1.73;0.63;;;5.90;99.90;;;;;;5058264;28;20475;-77
2022/12/05 11:37:03;;;;;;;1.63;0.90;;;5.90;99.90;;;;;;5054721;28;20021;-76
2022/12/05 11:39:30;;;;;;;2.40;0.73;;;5.90;99.90;;;;;;5057948;28;20017;-80
2022/12/05 11:42:14;;;;;;;3.28;1.50;;;6.00;99.90;;;;;;5061037;28;20104;-79
2022/12/05 11:44:59;;;;;;;2.63;0.82;;;4.60;99.90;;;;;;5060670;28;20445;-79
2022/12/05 11:48:06;;;;;;;2.42;1.30;;;6.00;99.90;;;;;;5059900;28;20017;-79
2022/12/05 11:50:59;;;;;;;3.47;1.00;;;6.00;99.90;;;;;;5056844;28;20037;-79
2022/12/05 11:54:06;;;;;;;3.20;1.20;;;6.00;99.90;;;;;;5055984;28;20033;-76
2022/12/05 11:56:56;;;;;;;3.53;1.30;;;6.00;99.90;;;;;;5045199;28;20044;-77
2022/12/05 11:59:30;;;;;;;4.25;1.70;;;6.00;99.90;;;;;;5055018;28;20021;-77
2022/12/05 12:02:15;;;;;;;4.50;1.45;;;6.00;99.90;;;;;;5055860;28;20048;-77
2022/12/05 12:04:43;;;;;;;3.70;0.98;;;6.00;99.90;;;;;;5055967;28;20443;-77
2022/12/05 12:07:26;;;;;;;2.75;1.20;;;6.00;99.90;;;;;;5056739;28;20163;-76
2022/12/05 12:09:57;;;;;;;3.25;1.20;;;6.00;99.90;;;;;;5054148;28;20025;-77
2022/12/05 12:12:45;;;;;;;5.15;1.48;;;6.00;99.90;;;;;;5056111;28;20018;-76
2022/12/05 12:15:48;;;;;;;5.43;2.00;;;6.10;99.90;;;;;;5055679;28;20021;-76
2022/12/05 12:18:45;;;;;;;2.75;1.15;;;6.10;99.90;;;;;;5055687;28;20487;-77
2022/12/05 12:21:34;;;;;;;2.83;1.17;;;6.00;99.90;;;;;;5056165;28;20028;-77
2022/12/05 12:24:32;;;;;;;2.90;1.25;;;6.00;99.90;;;;;;5054067;28;20112;-77
2022/12/05 12:27:20;;;;;;;6.80;1.15;;;6.00;99.90;;;;;;5054080;28;20047;-77
2022/12/05 12:30:21;;;;;;;3.58;1.42;;;6.10;99.90;;;;;;5053836;28;20037;-78
2022/12/05 12:33:23;;;;;;;3.42;1.17;;;6.10;99.90;;;;;;5053409;28;20116;-77
2022/12/05 12:35:55;;;;;;;3.63;1.00;;;6.10;99.90;;;;;;5053709;28;20024;-77
2022/12/05 12:38:36;;;;;;;4.90;1.60;;;6.10;99.90;;;;;;5055334;28;20047;-76
2022/12/05 12:41:12;;;;;;;3.22;1.20;;;6.10;99.90;;;;;;5053566;28;20032;-76
2022/12/05 12:44:04;;;;;;;4.38;1.70;;;6.10;99.90;;;;;;5053578;28;20376;-77
2022/12/05 12:46:56;;;;;;;4.18;1.13;;;6.10;99.90;;;;;;5054765;28;20025;-76
2022/12/05 12:49:43;;;;;;;3.10;1.35;;;6.10;99.90;;;;;;5053417;28;20056;-77
2022/12/05 12:52:21;;;;;;;3.30;1.08;;;6.10;99.90;;;;;;5053924;28;20021;-78
2022/12/05 12:55:05;;;;;;;4.60;1.27;;;6.10;99.90;;;;;;5066847;28;20044;-81
2022/12/05 12:58:01;;;;;;;6.05;1.73;;;6.10;99.90;;;;;;5054979;28;20107;-80
2022/12/05 13:00:51;;;;;;;4.07;1.30;;;6.10;99.90;;;;;;5055987;28;20025;-80
2022/12/05 13:03:24;;;;;;;5.75;2.15;;;6.10;99.90;;;;;;5056464;28;20480;-78
2022/12/05 13:05:58;;;;;;;5.85;2.22;;;6.10;99.90;;;;;;5057238;28;20037;-79
2022/12/05 13:08:26;;;;;;;7.07;1.75;;;6.10;99.90;;;;;;5054708;28;20040;-83
2022/12/05 13:10:52;;;;;;;4.88;0.82;;;6.10;99.90;;;;;;5058576;28;20033;-78
2022/12/05 13:13:24;;;;;;;3.60;1.20;;;6.10;99.90;;;;;;5055758;28;20086;-79
2022/12/05 13:15:53;;;;;;;4.78;1.02;;;6.10;99.90;;;;;;5056801;28;20104;-79